Time;durP1;ratioP1;P1;durP2;ratioP2;P2;SDS_P1;SDS_P2;PMS_P1;PMS_P2;Temp;Humidity;BMP_temperature;BMP_pressure;BME280_temperature;BME280_humidity;BME280_pressure;Samples;Min_cycle;Max_cycle;Signal;HPM_P1;HPM_P2
2022/08/25 00:01:17;;;;;;;;;12.75;12.75;;;;;27.99;37.76;100993.50;5059119;28;45509;-68
2022/08/25 00:03:44;;;;;;;;;12.00;11.00;;;;;27.86;37.48;100978.19;5054831;28;45316;-75
2022/08/25 00:06:10;;;;;;;;;10.25;9.00;;;;;27.92;37.20;100979.59;5061244;28;45428;-65
2022/08/25 00:08:37;;;;;;;;;11.75;11.75;;;;;27.85;37.36;100973.75;5057911;28;45903;-67
2022/08/25 00:11:10;;;;;;;;;11.50;10.75;;;;;27.98;37.28;100984.59;5055414;28;45506;-66
2022/08/25 00:13:38;;;;;;;;;13.50;10.50;;;;;27.86;37.61;100969.25;5054177;28;45807;-74
2022/08/25 00:16:04;;;;;;;;;9.75;9.00;;;;;27.93;37.64;100986.72;5056728;28;45380;-72
2022/08/25 00:18:29;;;;;;;;;10.00;10.00;;;;;27.96;37.48;100991.03;5057276;28;45461;-77
2022/08/25 00:20:55;;;;;;;;;8.25;8.25;;;;;27.88;37.54;100970.88;5062670;28;45649;-71
2022/08/25 00:23:21;;;;;;;;;10.00;9.75;;;;;28.00;37.92;100993.41;5068045;28;45462;-78
2022/08/25 00:25:51;;;;;;;;;8.50;8.00;;;;;27.81;37.94;100950.69;5046817;28;45396;-71
2022/08/25 00:28:17;;;;;;;;;10.00;8.75;;;;;28.01;38.02;100983.50;5071861;28;45481;-68
2022/08/25 00:30:43;;;;;;;;;7.25;7.25;;;;;27.88;37.73;100962.81;5063620;28;45363;-67
2022/08/25 00:33:09;;;;;;;;;9.00;8.50;;;;;27.94;37.98;100972.28;5034854;28;45500;-67
2022/08/25 00:35:35;;;;;;;;;9.50;9.25;;;;;27.91;38.27;100950.97;5052691;28;45507;-68
2022/08/25 00:38:01;;;;;;;;;8.00;8.00;;;;;27.99;38.21;100971.97;5059185;28;45978;-67
2022/08/25 00:40:27;;;;;;;;;9.00;7.50;;;;;27.98;38.01;100970.25;5056205;28;45517;-67
2022/08/25 00:42:54;;;;;;;;;7.25;7.25;;;;;27.90;38.26;100957.28;5056686;28;45543;-67
2022/08/25 00:45:22;;;;;;;;;8.00;8.00;;;;;28.03;38.30;100968.97;5056714;28;45363;-68
2022/08/25 00:47:48;;;;;;;;;10.25;8.25;;;;;28.03;38.44;100970.81;5058889;28;45515;-66
2022/08/25 00:50:16;;;;;;;;;7.75;7.75;;;;;28.00;38.89;100965.59;5056520;28;45524;-66
2022/08/25 00:52:45;;;;;;;;;6.75;6.75;;;;;28.01;38.27;100956.59;5055898;28;45540;-69
2022/08/25 00:55:11;;;;;;;;;8.00;8.00;;;;;28.01;38.39;100962.81;5056016;28;45475;-68
2022/08/25 00:57:41;;;;;;;;;8.00;7.25;;;;;27.81;38.35;100929.16;5037620;28;46881;-67
2022/08/25 01:00:18;;;;;;;;;8.75;8.75;;;;;27.98;37.90;100962.19;5055623;28;45467;-67
2022/08/25 01:02:44;;;;;;;;;12.00;8.00;;;;;27.88;38.01;100945.75;5059032;28;45869;-67
2022/08/25 01:05:11;;;;;;;;;10.25;9.75;;;;;27.84;37.76;100960.41;5060778;28;45386;-66
2022/08/25 01:07:38;;;;;;;;;9.25;9.00;;;;;27.86;38.06;100969.25;5060845;28;46722;-67
2022/08/25 01:10:06;;;;;;;;;10.00;9.00;;;;;27.83;37.93;100970.28;5058146;28;45478;-67
2022/08/25 01:12:33;;;;;;;;;13.00;8.75;;;;;27.64;37.84;100943.72;5054654;28;45420;-68
2022/08/25 01:15:01;;;;;;;;;10.00;10.00;;;;;27.73;38.42;100963.78;5056281;28;45624;-67
2022/08/25 01:17:34;;;;;;;;;12.50;11.75;;;;;27.56;38.06;100953.28;5055376;28;46353;-68
2022/08/25 01:20:00;;;;;;;;;10.75;9.75;;;;;27.56;37.83;100962.22;5037349;28;45435;-68
2022/08/25 01:22:26;;;;;;;;;11.67;11.67;;;;;27.45;38.17;100960.22;5055530;28;45547;-69
2022/08/25 01:25:08;;;;;;;;;11.00;9.33;;;;;27.28;38.61;100947.84;5037858;28;45520;-65
2022/08/25 01:27:34;;;;;;;;;9.00;8.00;;;;;27.33;38.51;100969.06;5054467;28;47141;-65
2022/08/25 01:30:00;;;;;;;;;10.33;9.67;;;;;27.22;38.85;100964.41;5053101;28;45973;-65
2022/08/25 01:32:25;;;;;;;;;11.00;11.00;;;;;27.29;39.21;100970.25;5057352;28;45502;-67
2022/08/25 01:34:51;;;;;;;;;8.50;8.00;;;;;27.20;38.77;100950.19;5059682;28;45500;-65
2022/08/25 01:37:18;;;;;;;;;8.50;7.75;;;;;27.05;39.64;100927.81;5059291;28;46139;-68
2022/08/25 01:39:43;;;;;;;;;10.75;9.25;;;;;27.20;39.80;100950.19;5059543;28;45531;-70
2022/08/25 01:42:41;;;;;;;;;8.00;7.25;;;;;27.04;39.09;100935.97;5056254;28;45549;-64
2022/08/25 01:45:07;;;;;;;;;8.25;8.25;;;;;27.30;39.21;100973.81;5057032;28;45539;-66
2022/08/25 01:47:33;;;;;;;;;7.00;7.00;;;;;27.16;39.30;100937.88;5059087;28;46312;-67
2022/08/25 01:49:58;;;;;;;;;8.25;8.25;;;;;27.29;38.96;100959.50;5059224;28;45355;-64
2022/08/25 01:52:36;;;;;;;;;8.00;8.00;;;;;27.26;39.33;100952.50;5059474;28;45398;-67
2022/08/25 01:55:03;;;;;;;;;7.25;7.25;;;;;27.17;39.34;100947.69;5054170;28;45908;-68
2022/08/25 01:57:30;;;;;;;;;11.50;9.75;;;;;27.24;39.58;100953.53;5054928;28;46419;-66
2022/08/25 01:59:57;;;;;;;;;9.25;8.25;;;;;27.18;39.43;100952.06;5054714;28;45485;-66
2022/08/25 02:02:23;;;;;;;;;9.50;9.50;;;;;27.03;40.39;100942.31;5055041;28;45374;-68
2022/08/25 02:04:48;;;;;;;;;10.00;9.33;;;;;26.99;40.26;100948.84;5054514;28;45304;-66
2022/08/25 02:07:14;;;;;;;;;12.00;10.00;;;;;26.95;40.14;100937.41;5055436;28;45331;-70
2022/08/25 02:09:40;;;;;;;;;11.00;9.67;;;;;26.86;40.13;100916.50;5055287;28;45779;-67
2022/08/25 02:12:08;;;;;;;;;14.33;13.33;;;;;26.85;40.15;100922.84;5054664;28;45505;-64
2022/08/25 02:14:35;;;;;;;;;9.67;9.67;;;;;26.83;40.03;100928.31;5054875;28;45541;-65
2022/08/25 02:17:01;;;;;;;;;7.00;7.00;;;;;26.88;40.06;100924.47;5042758;28;46407;-66
2022/08/25 02:19:29;;;;;;;;;8.75;8.00;;;;;26.65;40.16;100902.63;5058934;28;45888;-65
2022/08/25 02:21:55;;;;;;;;;10.25;9.75;;;;;26.80;40.08;100922.28;5055501;28;45394;-66
2022/08/25 02:24:21;;;;;;;;;8.33;8.33;;;;;26.75;40.27;100925.25;5055317;28;45497;-69
2022/08/25 02:26:47;;;;;;;;;10.00;10.00;;;;;26.59;40.09;100905.66;5054889;28;45504;-71
2022/08/25 02:29:14;;;;;;;;;9.33;8.67;;;;;26.76;40.16;100918.91;5054736;28;45409;-68
2022/08/25 02:31:39;;;;;;;;;9.00;7.33;;;;;26.79;39.87;100907.97;5056321;28;45448;-64
2022/08/25 02:34:07;;;;;;;;;11.00;9.00;;;;;26.81;39.78;100908.75;5054857;28;45661;-66
2022/08/25 02:36:33;;;;;;;;;8.33;8.33;;;;;26.68;39.82;100883.59;5054631;28;46228;-70
2022/08/25 02:39:00;;;;;;;;;9.33;8.33;;;;;26.70;39.45;100896.97;5054667;28;45500;-66
2022/08/25 02:41:26;;;;;;;;;10.00;9.00;;;;;26.75;39.75;100902.91;5058154;28;45301;-68
2022/08/25 02:43:54;;;;;;;;;9.33;9.33;;;;;26.59;40.13;100893.09;5058161;28;45438;-69
2022/08/25 02:46:20;;;;;;;;;11.25;9.50;;;;;26.64;40.27;100903.56;5061049;28;45425;-72
2022/08/25 02:48:46;;;;;;;;;8.25;8.25;;;;;26.63;39.95;100902.69;5060014;28;45490;-72
2022/08/25 02:51:12;;;;;;;;;8.25;8.25;;;;;26.62;39.94;100901.00;5058941;28;45454;-67
2022/08/25 02:53:40;;;;;;;;;9.75;9.25;;;;;26.62;40.25;100895.63;5059238;28;45500;-68
2022/08/25 02:56:08;;;;;;;;;8.00;6.75;;;;;26.53;40.57;100881.84;5056466;28;46383;-71
2022/08/25 02:58:35;;;;;;;;;15.50;10.25;;;;;26.47;40.50;100883.09;5057000;28;45815;-69
2022/08/25 03:01:00;;;;;;;;;12.67;11.00;;;;;26.42;40.82;100882.53;5059265;28;45525;-65
2022/08/25 03:03:26;;;;;;;;;13.00;11.00;;;;;26.33;40.57;100864.28;5058804;28;45377;-67
2022/08/25 03:05:52;;;;;;;;;13.33;12.00;;;;;26.40;40.81;100879.06;5056555;28;45307;-68
2022/08/25 03:08:18;;;;;;;;;14.67;11.33;;;;;26.31;40.45;100887.69;5058781;28;45336;-65
2022/08/25 03:10:44;;;;;;;;;12.33;10.33;;;;;26.19;40.78;100879.41;5057016;28;45492;-67
2022/08/25 03:13:09;;;;;;;;;10.33;10.33;;;;;26.12;40.79;100877.22;5058941;28;45585;-69
2022/08/25 03:15:36;;;;;;;;;10.33;10.33;;;;;26.16;40.86;100898.41;5060982;28;46533;-65
2022/08/25 03:18:04;;;;;;;;;10.67;9.33;;;;;26.03;41.01;100884.03;5061069;28;45444;-68
2022/08/25 03:20:30;;;;;;;;;8.00;8.00;;;;;26.12;41.19;100894.16;5060220;28;45623;-68
2022/08/25 03:22:56;;;;;;;;;10.00;10.00;;;;;26.15;40.91;100883.28;5058665;28;45390;-70
2022/08/25 03:28:09;;;;;;;;;9.00;9.00;;;;;26.08;40.96;100859.56;5056563;28;45489;-69
2022/08/25 03:30:34;;;;;;;;;9.00;9.00;;;;;26.16;40.33;100876.94;5056621;28;45486;-66
2022/08/25 03:33:00;;;;;;;;;12.00;10.00;;;;;26.18;40.33;100871.47;5056691;28;45431;-68
2022/08/25 03:35:25;;;;;;;;;12.67;11.00;;;;;26.15;40.73;100863.59;5059828;28;46456;-72
2022/08/25 03:37:55;;;;;;;;;11.33;9.33;;;;;26.12;40.82;100861.97;5055571;28;45525;-71
2022/08/25 03:40:22;;;;;;;;;10.67;10.67;;;;;26.02;40.75;100848.25;5059972;28;45434;-71
2022/08/25 03:42:47;;;;;;;;;11.00;10.00;;;;;26.07;40.67;100849.78;5064746;28;45394;-75
2022/08/25 03:45:16;;;;;;;;;10.33;10.33;;;;;26.06;41.18;100848.06;5056007;28;45367;-75
2022/08/25 03:47:46;;;;;;;;;11.67;10.33;;;;;26.08;40.87;100851.50;5058613;28;45375;-73
2022/08/25 03:50:13;;;;;;;;;9.33;9.33;;;;;26.01;41.26;100841.16;5056064;28;45378;-64
2022/08/25 03:52:44;;;;;;;;;9.00;9.00;;;;;25.84;41.19;100813.56;5054160;28;45446;-65
2022/08/25 03:55:13;;;;;;;;;13.00;10.33;;;;;25.91;41.63;100839.13;5053201;28;46682;-66
2022/08/25 03:57:39;;;;;;;;;10.00;9.00;;;;;25.79;41.67;100833.53;5053694;28;45603;-65
2022/08/25 04:00:09;;;;;;;;;10.67;10.67;;;;;25.88;41.59;100845.53;5057023;28;45446;-66
2022/08/25 04:02:34;;;;;;;;;10.00;9.67;;;;;25.91;41.63;100840.00;5053115;28;45618;-67
2022/08/25 04:05:00;;;;;;;;;10.00;10.00;;;;;25.91;41.21;100849.84;5053447;28;45367;-69
2022/08/25 04:07:26;;;;;;;;;11.00;9.67;;;;;25.80;40.67;100851.34;5054380;28;45591;-65
2022/08/25 04:09:55;;;;;;;;;9.00;9.00;;;;;25.84;41.06;100865.44;5053698;28;45490;-65
2022/08/25 04:12:21;;;;;;;;;12.00;11.33;;;;;25.84;40.71;100854.72;5055555;28;45695;-65
2022/08/25 04:14:47;;;;;;;;;8.00;8.00;;;;;25.86;40.91;100847.44;5057415;28;45452;-75
2022/08/25 04:17:13;;;;;;;;;9.33;9.33;;;;;25.93;40.89;100854.16;5039354;28;45902;-72
2022/08/25 04:19:39;;;;;;;;;9.67;9.67;;;;;25.95;41.48;100840.66;5057359;28;45627;-72
2022/08/25 04:22:04;;;;;;;;;8.67;8.33;;;;;26.01;41.08;100862.63;5057144;28;45488;-72
2022/08/25 04:24:30;;;;;;;;;8.33;8.33;;;;;26.04;40.61;100869.63;5056640;28;45377;-76
2022/08/25 04:26:56;;;;;;;;;11.67;9.67;;;;;25.97;40.56;100861.06;5056768;28;45577;-73
2022/08/25 04:29:23;;;;;;;;;9.33;9.33;;;;;26.04;40.54;100876.81;5056592;28;45546;-70
2022/08/25 04:31:50;;;;;;;;;9.00;9.00;;;;;25.96;40.82;100863.84;5056948;28;45755;-66
2022/08/25 04:34:19;;;;;;;;;7.67;7.67;;;;;26.05;40.68;100867.81;5057189;28;46304;-70
2022/08/25 04:36:45;;;;;;;;;7.33;7.33;;;;;26.03;40.97;100865.22;5056918;28;45473;-66
2022/08/25 04:39:11;;;;;;;;;9.67;9.33;;;;;26.08;40.73;100871.19;5056455;28;45891;-67
2022/08/25 04:41:38;;;;;;;;;12.00;9.00;;;;;26.09;40.42;100874.72;5056490;28;45613;-78
2022/08/25 04:44:04;;;;;;;;;9.33;8.33;;;;;26.16;40.47;100881.44;5055890;28;46570;-71
2022/08/25 04:46:31;;;;;;;;;9.00;8.00;;;;;26.15;40.53;100887.75;5057324;28;45422;-70
2022/08/25 04:48:59;;;;;;;;;9.33;9.00;;;;;26.08;40.66;100889.06;5060283;28;45331;-73
2022/08/25 04:51:28;;;;;;;;;9.00;9.00;;;;;26.00;40.68;100885.03;5058406;28;45507;-71
2022/08/25 04:53:54;;;;;;;;;10.33;10.33;;;;;26.04;40.81;100898.28;5056462;28;45774;-79
2022/08/25 04:56:23;;;;;;;;;9.33;9.33;;;;;26.06;41.01;100902.63;5038309;28;45442;-69
2022/08/25 04:58:50;;;;;;;;;9.33;9.33;;;;;25.99;41.31;100891.38;5055547;28;45588;-67
2022/08/25 05:01:18;;;;;;;;;11.00;8.67;;;;;26.03;40.97;100897.44;5058341;28;45429;-74
2022/08/25 05:03:51;;;;;;;;;8.33;8.33;;;;;25.94;41.13;100882.75;5060116;28;45747;-76
2022/08/25 05:06:17;;;;;;;;;9.33;9.33;;;;;26.04;41.17;100909.88;5056866;28;45485;-74
2022/08/25 05:08:43;;;;;;;;;10.00;9.33;;;;;26.00;40.74;100913.69;5056216;28;45413;-70
2022/08/25 05:11:13;;;;;;;;;11.00;10.00;;;;;25.90;40.83;100899.97;5055264;28;46024;-75
2022/08/25 05:13:39;;;;;;;;;11.00;10.00;;;;;26.00;40.96;100919.06;5037960;28;46717;-66
2022/08/25 05:16:05;;;;;;;;;8.33;8.33;;;;;25.93;41.03;100912.34;5056873;28;45618;-67
2022/08/25 05:18:33;;;;;;;;;9.67;9.67;;;;;25.91;41.82;100924.97;5056404;28;45558;-69
2022/08/25 05:21:06;;;;;;;;;8.33;7.67;;;;;25.70;41.61;100900.25;5056162;28;45407;-64
2022/08/25 05:23:32;;;;;;;;;9.00;9.00;;;;;25.87;41.40;100936.88;5042021;28;46943;-65
2022/08/25 05:26:06;;;;;;;;;10.00;7.67;;;;;25.90;41.17;100931.31;5056083;28;45558;-67
2022/08/25 05:28:32;;;;;;;;;9.67;9.00;;;;;25.92;41.51;100932.09;5055047;28;45470;-68
2022/08/25 05:30:59;;;;;;;;;11.67;10.00;;;;;25.86;41.15;100929.72;5055520;28;45543;-67
2022/08/25 05:33:26;;;;;;;;;12.67;9.00;;;;;25.69;41.30;100903.88;5054599;28;46093;-68
2022/08/25 05:35:52;;;;;;;;;11.00;9.33;;;;;25.75;41.59;100907.09;5055064;28;45544;-66
2022/08/25 05:38:17;;;;;;;;;9.00;8.67;;;;;25.77;41.39;100915.06;5055320;28;45802;-65
2022/08/25 05:40:44;;;;;;;;;10.00;10.00;;;;;25.92;41.74;100940.13;5055347;28;45462;-66
2022/08/25 05:43:11;;;;;;;;;10.67;10.67;;;;;25.89;41.88;100934.94;5056745;28;47113;-66
2022/08/25 05:45:36;;;;;;;;;10.00;10.00;;;;;25.93;41.50;100931.13;5059193;28;45505;-68
2022/08/25 05:48:02;;;;;;;;;10.33;10.00;;;;;25.95;41.58;100931.91;5060821;28;45601;-71
2022/08/25 05:50:31;;;;;;;;;12.33;10.00;;;;;25.88;40.86;100917.13;5058918;28;45615;-67
2022/08/25 05:52:57;;;;;;;;;12.00;10.00;;;;;25.91;41.16;100925.88;5058115;28;46196;-81
2022/08/25 05:55:23;;;;;;;;;10.67;10.67;;;;;26.06;40.65;100932.13;5062333;28;45272;-77
2022/08/25 05:57:49;;;;;;;;;14.33;11.67;;;;;26.11;40.36;100927.34;5044438;28;45502;-78
2022/08/25 06:00:16;;;;;;;;;9.67;9.67;;;;;26.10;40.74;100904.16;5059103;28;45550;-69
2022/08/25 06:02:46;;;;;;;;;9.00;8.67;;;;;26.32;40.70;100933.25;5057328;28;45979;-73
2022/08/25 06:05:18;;;;;;;;;13.00;11.33;;;;;26.03;40.14;100884.03;5037291;28;45477;-67
2022/08/25 06:07:46;;;;;;;;;13.00;11.33;;;;;26.33;40.78;100928.72;5056168;28;45815;-68
2022/08/25 06:10:12;;;;;;;;;15.67;13.00;;;;;26.27;40.87;100910.31;5057240;28;45372;-67
2022/08/25 06:12:39;;;;;;;;;16.00;15.00;;;;;26.16;39.92;100890.34;5053737;28;45562;-66
2022/08/25 06:15:06;;;;;;;;;16.00;14.33;;;;;26.13;40.44;100911.16;5055065;28;45792;-68
2022/08/25 06:17:33;;;;;;;;;17.00;15.67;;;;;26.09;41.53;100923.03;5057078;28;45792;-68
2022/08/25 06:19:59;;;;;;;;;18.00;16.33;;;;;26.12;41.66;100923.69;5055517;28;45536;-68
2022/08/25 06:22:25;;;;;;;;;16.33;16.33;;;;;26.03;41.08;100894.75;5056121;28;45412;-67
2022/08/25 06:24:52;;;;;;;;;20.67;16.00;;;;;26.26;40.61;100917.50;5056056;28;45898;-65
2022/08/25 06:27:17;;;;;;;;;16.00;14.33;;;;;26.36;40.65;100923.16;5055375;28;45431;-68
2022/08/25 06:29:43;;;;;;;;;14.67;13.00;;;;;26.41;39.90;100926.44;5054143;28;45732;-65
2022/08/25 06:32:08;;;;;;;;;16.67;16.00;;;;;26.34;40.18;100922.38;5053957;28;46218;-66
2022/08/25 06:34:34;;;;;;;;;20.00;18.00;;;;;26.31;39.96;100927.97;5053572;28;45459;-66
2022/08/25 06:37:00;;;;;;;;;17.00;15.00;;;;;26.07;41.08;100916.88;5050988;28;45813;-66
2022/08/25 06:39:26;;;;;;;;;17.33;15.33;;;;;26.08;41.04;100926.66;5036960;28;45347;-67
2022/08/25 06:41:53;;;;;;;;;15.67;15.67;;;;;26.19;41.12;100930.41;5056983;28;46035;-64
2022/08/25 06:44:20;;;;;;;;;16.00;16.00;;;;;26.15;40.87;100936.06;5054528;28;45484;-65
2022/08/25 06:46:46;;;;;;;;;15.67;14.67;;;;;25.96;40.18;100915.72;5035524;28;45334;-65
2022/08/25 06:49:12;;;;;;;;;17.67;16.67;;;;;25.90;40.30;100899.97;5054598;28;45566;-63
2022/08/25 06:51:38;;;;;;;;;17.33;14.67;;;;;26.06;39.57;100933.97;5054079;28;45387;-65
2022/08/25 06:54:11;;;;;;;;;19.33;14.67;;;;;26.08;40.00;100922.19;5055147;28;45573;-69
2022/08/25 06:56:44;;;;;;;;;17.67;13.33;;;;;26.21;39.76;100941.06;5029036;28;45390;-65
2022/08/25 06:59:10;;;;;;;;;14.33;14.33;;;;;26.14;39.16;100927.16;5053936;28;45628;-66
2022/08/25 07:01:36;;;;;;;;;17.00;16.33;;;;;26.11;39.94;100932.72;5053674;28;46217;-67
2022/08/25 07:04:04;;;;;;;;;16.67;14.67;;;;;26.20;38.75;100931.31;5056720;28;45549;-66
2022/08/25 07:06:34;;;;;;;;;12.33;11.67;;;;;26.32;39.38;100935.06;5053133;28;45751;-69
2022/08/25 07:09:00;;;;;;;;;14.00;14.00;;;;;26.40;38.12;100936.31;5056609;28;45443;-65
2022/08/25 07:11:26;;;;;;;;;12.67;12.67;;;;;26.41;38.36;100930.00;5054074;28;46346;-67
2022/08/25 07:13:52;;;;;;;;;13.33;12.00;;;;;26.62;37.81;100935.91;5035705;28;45616;-68
2022/08/25 07:16:19;;;;;;;;;16.67;13.33;;;;;26.52;37.62;100929.31;5056548;28;45501;-68
2022/08/25 07:18:46;;;;;;;;;16.33;15.00;;;;;26.61;37.29;100925.25;5054070;28;45436;-68
2022/08/25 07:21:13;;;;;;;;;15.33;13.00;;;;;26.75;37.35;100932.44;5055073;28;47010;-69
2022/08/25 07:23:40;;;;;;;;;16.00;14.33;;;;;26.79;37.67;100933.97;5054128;28;45557;-68
2022/08/25 07:26:09;;;;;;;;;14.00;14.00;;;;;26.73;37.19;100929.00;5053138;28;45398;-69
2022/08/25 07:28:44;;;;;;;;;14.33;14.33;;;;;26.56;37.78;100936.28;5053433;28;45625;-68
2022/08/25 07:31:13;;;;;;;;;12.33;12.33;;;;;26.68;37.38;100948.09;5035303;28;47729;-69
2022/08/25 07:35:13;;;;;;;;;16.33;14.33;;;;;26.60;37.50;100919.03;5055171;28;45280;-69
2022/08/25 07:36:24;;;;;;;;;15.33;12.67;;;;;26.36;37.49;100890.94;5057299;28;45288;-69
2022/08/25 07:38:50;;;;;;;;;13.33;13.33;;;;;26.78;37.30;100933.09;5057763;28;45522;-70
2022/08/25 07:41:15;;;;;;;;;13.00;13.00;;;;;26.03;37.03;100803.50;5057410;28;45336;-69
2022/08/25 07:43:41;;;;;;;;;12.67;12.67;;;;;26.72;36.95;100922.75;5057250;28;45362;-71
2022/08/25 07:46:07;;;;;;;;;14.67;11.33;;;;;26.96;36.84;100947.22;5057286;28;45232;-69
2022/08/25 07:48:32;;;;;;;;;14.33;13.00;;;;;27.05;36.69;100941.25;5057608;28;45392;-69
2022/08/25 07:50:58;;;;;;;;;13.00;13.00;;;;;26.99;37.17;100916.59;5052201;28;46733;-71
2022/08/25 07:53:24;;;;;;;;;14.00;12.67;;;;;27.24;36.67;100940.09;5053072;28;45553;-69
2022/08/25 07:55:50;;;;;;;;;17.00;15.00;;;;;27.28;36.58;100934.41;5053699;28;45663;-69
2022/08/25 07:58:17;;;;;;;;;12.67;11.00;;;;;27.31;36.29;100930.66;5053281;28;45696;-69
2022/08/25 08:00:47;;;;;;;;;11.67;11.67;;;;;27.46;36.53;100926.97;5052504;28;46580;-70
2022/08/25 08:03:12;;;;;;;;;11.00;11.00;;;;;27.62;35.79;100923.25;5052836;28;45461;-69
2022/08/25 08:05:40;;;;;;;;;11.67;11.67;;;;;27.44;35.71;100891.25;5034042;28;45581;-70
2022/08/25 08:08:05;;;;;;;;;13.67;12.67;;;;;27.65;35.19;100923.06;5052718;28;45536;-68
2022/08/25 08:10:31;;;;;;;;;14.00;12.67;;;;;27.59;35.21;100912.72;5051322;28;45591;-72
2022/08/25 08:12:57;;;;;;;;;13.00;13.00;;;;;27.59;34.78;100902.81;5049916;28;45489;-71
2022/08/25 08:15:22;;;;;;;;;15.00;13.00;;;;;27.61;34.79;100919.72;5046632;28;45497;-69
2022/08/25 08:17:48;;;;;;;;;7.67;7.67;;;;;27.54;34.19;100896.88;5053371;28;45411;-69
2022/08/25 08:20:15;;;;;;;;;12.00;11.67;;;;;27.84;34.67;100915.53;5056799;28;45454;-67
2022/08/25 08:22:44;;;;;;;;;13.33;12.67;;;;;28.04;34.68;100915.97;5038238;28;45315;-66
2022/08/25 08:25:10;;;;;;;;;12.33;12.33;;;;;28.08;34.44;100922.88;5053331;28;45312;-65
2022/08/25 08:27:36;;;;;;;;;13.33;13.00;;;;;28.23;34.48;100927.19;5052254;28;45516;-66
2022/08/25 08:30:04;;;;;;;;;12.00;11.33;;;;;28.34;34.10;100927.31;5051850;28;45497;-65
2022/08/25 08:32:30;;;;;;;;;10.50;10.25;;;;;28.53;34.10;100934.16;5053426;28;45556;-67
2022/08/25 08:34:56;;;;;;;;;10.50;9.75;;;;;28.71;34.18;100959.81;5056353;28;46862;-71
2022/08/25 08:37:22;;;;;;;;;13.50;11.00;;;;;28.90;34.66;100964.75;5038118;28;45267;-68
2022/08/25 08:39:48;;;;;;;;;10.25;10.25;;;;;29.08;34.17;100953.66;5052609;28;46293;-67
2022/08/25 08:42:52;;;;;;;;;10.75;10.25;;;;;29.16;33.48;100925.16;5052490;28;45540;-69
2022/08/25 08:45:44;;;;;;;;;12.25;10.50;;;;;29.28;33.46;100927.91;5050759;28;45834;-66
2022/08/25 08:48:31;;;;;;;;;7.75;7.75;;;;;29.35;33.76;100940.84;5049801;28;45579;-67
2022/08/25 08:51:24;;;;;;;;;10.75;8.75;;;;;29.35;34.02;100940.84;5045984;28;46767;-68
2022/08/25 08:54:03;;;;;;;;;13.50;11.25;;;;;29.38;34.32;100939.75;5052479;28;45529;-66
2022/08/25 08:56:39;;;;;;;;;13.00;10.25;;;;;29.41;33.14;100923.34;5052383;28;45773;-67
2022/08/25 08:59:12;;;;;;;;;8.25;8.25;;;;;29.67;33.98;100940.31;5055243;28;45566;-66
2022/08/25 09:01:58;;;;;;;;;9.50;9.50;;;;;29.84;33.04;100955.22;5055734;28;45508;-66
2022/08/25 09:04:34;;;;;;;;;11.75;9.75;;;;;29.95;32.84;100949.88;5058658;28;45237;-65
2022/08/25 09:07:04;;;;;;;;;12.00;12.00;;;;;30.05;31.88;100952.75;5049413;28;45829;-66
2022/08/25 09:09:33;;;;;;;;;11.75;9.00;;;;;30.17;32.42;100956.34;5056050;28;45442;-65
2022/08/25 09:12:21;;;;;;;;;12.25;10.50;;;;;30.19;33.44;100954.38;5055446;28;45504;-66
2022/08/25 09:15:01;;;;;;;;;10.25;10.25;;;;;30.10;33.13;100944.28;5041692;28;45431;-66
2022/08/25 09:17:55;;;;;;;;;13.25;12.50;;;;;30.04;32.90;100936.66;5060202;28;45617;-65
2022/08/25 09:20:56;;;;;;;;;12.00;10.75;;;;;29.95;33.35;100944.47;5047360;28;45325;-66
2022/08/25 09:24:06;;;;;;;;;11.00;10.25;;;;;30.06;33.09;100954.44;4990925;28;46519;-66
2022/08/25 09:26:50;;;;;;;;;10.00;10.00;;;;;30.21;32.71;100938.94;5050838;28;45399;-65
2022/08/25 09:29:27;;;;;;;;;10.00;9.50;;;;;30.36;32.59;100939.59;5057636;28;45330;-67
2022/08/25 09:31:59;;;;;;;;;11.25;9.00;;;;;30.45;33.14;100933.47;5058230;28;45406;-69
2022/08/25 09:34:31;;;;;;;;;11.25;11.25;;;;;30.47;32.38;100936.03;5057825;28;45473;-68
2022/08/25 09:36:57;;;;;;;;;11.00;10.50;;;;;30.47;33.47;100945.03;5058097;28;45895;-68
2022/08/25 09:39:23;;;;;;;;;12.50;12.00;;;;;30.48;33.30;100946.72;5057224;28;45474;-65
2022/08/25 09:41:57;;;;;;;;;14.75;13.50;;;;;30.54;33.97;100942.69;5059217;28;45424;-67
2022/08/25 09:44:37;;;;;;;;;13.25;12.50;;;;;30.59;34.25;100954.00;5059476;28;45368;-66
2022/08/25 09:47:05;;;;;;;;;13.50;11.00;;;;;30.54;34.21;100940.84;5062907;28;45610;-67
2022/08/25 09:49:37;;;;;;;;;11.50;11.50;;;;;30.68;34.40;100953.25;5060182;28;45447;-67
2022/08/25 09:52:43;;;;;;;;;15.00;12.00;;;;;30.75;34.51;100954.53;5059326;28;45445;-66
2022/08/25 09:55:14;;;;;;;;;14.75;12.00;;;;;30.77;34.32;100955.22;5009182;28;47540;-67
2022/08/25 09:57:44;;;;;;;;;14.50;14.50;;;;;30.79;33.95;100953.28;5057417;28;45295;-67
2022/08/25 10:00:26;;;;;;;;;10.50;10.50;;;;;30.62;33.82;100924.88;5056687;28;45430;-68
2022/08/25 10:03:04;;;;;;;;;12.50;11.50;;;;;30.90;34.00;100935.38;5046437;28;45577;-69
2022/08/25 10:05:34;;;;;;;;;13.75;11.50;;;;;30.97;33.79;100939.31;5057043;28;46145;-70
2022/08/25 10:08:11;;;;;;;;;13.25;12.50;;;;;31.02;34.30;100935.22;5056812;28;45454;-70
2022/08/25 10:10:44;;;;;;;;;11.75;10.25;;;;;31.14;33.63;100929.81;5055637;28;45536;-69
2022/08/25 10:13:22;;;;;;;;;16.25;14.50;;;;;31.15;33.87;100935.06;5054954;28;45509;-71
2022/08/25 10:16:21;;;;;;;;;12.75;12.25;;;;;31.25;32.34;100930.66;5063022;28;45593;-68
2022/08/25 10:19:24;;;;;;;;;13.00;12.25;;;;;31.29;33.29;100923.13;5046701;28;45557;-69
2022/08/25 10:22:20;;;;;;;;;18.25;15.25;;;;;31.36;32.13;100918.94;5056654;28;45471;-69
2022/08/25 10:24:45;;;;;;;;;17.50;16.00;;;;;31.40;32.22;100925.84;5059890;28;45433;-69
2022/08/25 10:27:38;;;;;;;;;11.75;11.00;;;;;31.43;32.36;100922.03;5055531;28;45676;-70
2022/08/25 10:30:06;;;;;;;;;15.00;15.00;;;;;31.53;32.25;100919.41;5055570;28;45891;-70
2022/08/25 10:32:56;;;;;;;;;17.50;17.50;;;;;31.60;32.13;100915.19;5057060;28;45398;-67
2022/08/25 10:35:37;;;;;;;;;15.50;15.25;;;;;31.58;31.89;100888.25;5054901;28;45441;-67
2022/08/25 10:38:32;;;;;;;;;14.75;14.00;;;;;31.73;32.07;100906.91;5036363;28;47894;-68
2022/08/25 10:41:15;;;;;;;;;14.25;13.75;;;;;31.74;31.74;100887.81;5050864;28;45497;-68
2022/08/25 10:43:59;;;;;;;;;13.00;13.00;;;;;31.90;32.43;100898.22;5049691;28;45793;-67
2022/08/25 10:46:34;;;;;;;;;15.25;15.25;;;;;32.01;31.18;100890.06;5054452;28;45727;-68
2022/08/25 10:49:24;;;;;;;;;19.25;17.75;;;;;32.04;30.96;100886.22;5053166;28;45821;-67
2022/08/25 10:52:11;;;;;;;;;13.50;13.50;;;;;32.11;31.23;100880.13;5053371;28;45428;-68
2022/08/25 10:54:59;;;;;;;;;15.50;14.25;;;;;32.16;30.48;100887.00;5057981;28;45346;-67
2022/08/25 10:58:01;;;;;;;;;12.00;12.00;;;;;32.30;30.59;100892.09;5056507;28;45356;-68
2022/08/25 11:00:36;;;;;;;;;11.25;10.50;;;;;32.43;29.92;100887.28;5053736;28;46217;-68
2022/08/25 11:03:31;;;;;;;;;13.75;11.50;;;;;32.57;29.51;100893.38;5053858;28;45487;-67
2022/08/25 11:06:04;;;;;;;;;12.00;10.50;;;;;32.68;29.43;100877.03;5054039;28;45438;-68
2022/08/25 11:08:43;;;;;;;;;10.75;8.50;;;;;32.65;29.44;100850.16;5053999;28;45618;-67
2022/08/25 11:11:23;;;;;;;;;13.25;10.25;;;;;32.90;29.48;100876.81;5044527;28;45668;-67
2022/08/25 11:14:04;;;;;;;;;11.00;10.80;;;;;32.92;29.54;100872.09;5057275;28;45773;-69
2022/08/25 11:16:50;;;;;;;;;17.25;13.50;;;;;32.97;28.61;100860.84;5053632;28;45977;-68
2022/08/25 11:19:48;;;;;;;;;17.25;16.00;;;;;33.04;28.70;100877.44;5054720;28;45437;-72
2022/08/25 11:22:37;;;;;;;;;10.00;9.00;;;;;33.01;29.23;100866.81;5052641;28;45534;-69
2022/08/25 11:25:31;;;;;;;;;10.80;10.80;;;;;33.19;28.73;100886.91;5055931;28;45496;-64
2022/08/25 11:28:26;;;;;;;;;11.25;11.00;;;;;33.21;28.60;100851.47;5052052;28;45442;-63
2022/08/25 11:30:54;;;;;;;;;11.50;10.50;;;;;33.51;27.87;100889.38;5058357;28;45471;-66
2022/08/25 11:33:27;;;;;;;;;13.75;12.25;;;;;33.69;27.73;100886.81;5055597;28;45363;-63